sensor_id;sensor_type;location;lat;lon;timestamp;temperature;humidity
3504;DHT22;1766;53.490;10.174;2023-04-03T00:01:36;7.70;36.10
3504;DHT22;1766;53.490;10.174;2023-04-03T00:03:40;7.70;36.20
3504;DHT22;1766;53.490;10.174;2023-04-03T00:05:42;7.70;36.30
3504;DHT22;1766;53.490;10.174;2023-04-03T00:07:44;7.70;35.90
3504;DHT22;1766;53.490;10.174;2023-04-03T00:09:46;7.70;36.40
3504;DHT22;1766;53.490;10.174;2023-04-03T00:11:48;7.60;36.40
3504;DHT22;1766;53.490;10.174;2023-04-03T00:13:50;7.60;36.40
3504;DHT22;1766;53.490;10.174;2023-04-03T00:15:52;7.60;36.20
3504;DHT22;1766;53.490;10.174;2023-04-03T00:17:54;7.60;36.50
3504;DHT22;1766;53.490;10.174;2023-04-03T00:19:57;7.60;36.50
3504;DHT22;1766;53.490;10.174;2023-04-03T00:21:59;7.60;36.30
3504;DHT22;1766;53.490;10.174;2023-04-03T00:24:01;7.60;36.40
3504;DHT22;1766;53.490;10.174;2023-04-03T00:26:04;7.50;36.40
3504;DHT22;1766;53.490;10.174;2023-04-03T00:28:06;7.50;36.80
3504;DHT22;1766;53.490;10.174;2023-04-03T00:30:10;7.50;36.70
3504;DHT22;1766;53.490;10.174;2023-04-03T00:32:14;7.50;36.50
3504;DHT22;1766;53.490;10.174;2023-04-03T00:34:16;7.50;36.50
3504;DHT22;1766;53.490;10.174;2023-04-03T00:36:19;7.50;36.60
3504;DHT22;1766;53.490;10.174;2023-04-03T00:38:21;7.50;36.90
3504;DHT22;1766;53.490;10.174;2023-04-03T00:40:25;7.50;36.70
3504;DHT22;1766;53.490;10.174;2023-04-03T00:42:32;7.50;36.70
3504;DHT22;1766;53.490;10.174;2023-04-03T00:47:20;7.40;36.60
3504;DHT22;1766;53.490;10.174;2023-04-03T00:49:22;7.40;37.00
3504;DHT22;1766;53.490;10.174;2023-04-03T00:51:27;7.40;37.00
3504;DHT22;1766;53.490;10.174;2023-04-03T00:53:31;7.40;36.70
3504;DHT22;1766;53.490;10.174;2023-04-03T00:55:36;7.40;36.70
3504;DHT22;1766;53.490;10.174;2023-04-03T00:57:39;7.40;37.20
3504;DHT22;1766;53.490;10.174;2023-04-03T00:59:45;7.30;36.70
3504;DHT22;1766;53.490;10.174;2023-04-03T01:01:50;7.30;36.80
3504;DHT22;1766;53.490;10.174;2023-04-03T01:03:52;7.30;36.90
3504;DHT22;1766;53.490;10.174;2023-04-03T01:05:54;7.30;37.20
3504;DHT22;1766;53.490;10.174;2023-04-03T01:07:58;7.20;36.90
3504;DHT22;1766;53.490;10.174;2023-04-03T01:10:03;7.20;36.90
3504;DHT22;1766;53.490;10.174;2023-04-03T01:12:15;7.20;37.30
3504;DHT22;1766;53.490;10.174;2023-04-03T01:14:17;7.20;37.00
3504;DHT22;1766;53.490;10.174;2023-04-03T01:16:19;7.20;37.30
3504;DHT22;1766;53.490;10.174;2023-04-03T01:18:22;7.10;37.00
3504;DHT22;1766;53.490;10.174;2023-04-03T01:23:20;7.10;37.20
3504;DHT22;1766;53.490;10.174;2023-04-03T01:25:26;7.10;37.10
3504;DHT22;1766;53.490;10.174;2023-04-03T01:27:28;7.10;37.40
3504;DHT22;1766;53.490;10.174;2023-04-03T01:29:30;7.00;37.10
3504;DHT22;1766;53.490;10.174;2023-04-03T01:33:54;7.00;37.50
3504;DHT22;1766;53.490;10.174;2023-04-03T01:35:56;7.10;37.60
3504;DHT22;1766;53.490;10.174;2023-04-03T01:37:58;7.00;37.60
3504;DHT22;1766;53.490;10.174;2023-04-03T01:40:00;7.00;37.30
3504;DHT22;1766;53.490;10.174;2023-04-03T01:42:02;7.00;37.50
3504;DHT22;1766;53.490;10.174;2023-04-03T01:44:05;7.00;37.30
3504;DHT22;1766;53.490;10.174;2023-04-03T01:46:07;7.00;37.40
3504;DHT22;1766;53.490;10.174;2023-04-03T01:48:10;6.90;37.40
3504;DHT22;1766;53.490;10.174;2023-04-03T01:50:12;6.90;37.40
3504;DHT22;1766;53.490;10.174;2023-04-03T01:52:14;6.90;37.40
3504;DHT22;1766;53.490;10.174;2023-04-03T01:56:18;6.90;37.50
3504;DHT22;1766;53.490;10.174;2023-04-03T02:02:28;6.80;37.80
3504;DHT22;1766;53.490;10.174;2023-04-03T02:04:31;6.80;37.80
3504;DHT22;1766;53.490;10.174;2023-04-03T02:06:34;6.80;37.90
3504;DHT22;1766;53.490;10.174;2023-04-03T02:08:36;6.80;38.00
3504;DHT22;1766;53.490;10.174;2023-04-03T02:10:38;6.80;38.00
3504;DHT22;1766;53.490;10.174;2023-04-03T02:12:40;6.70;37.90
3504;DHT22;1766;53.490;10.174;2023-04-03T02:14:41;6.80;38.10
3504;DHT22;1766;53.490;10.174;2023-04-03T02:16:43;6.80;38.60
3504;DHT22;1766;53.490;10.174;2023-04-03T02:18:45;6.80;38.20
3504;DHT22;1766;53.490;10.174;2023-04-03T02:20:48;6.80;38.20
3504;DHT22;1766;53.490;10.174;2023-04-03T02:22:50;6.90;38.40
3504;DHT22;1766;53.490;10.174;2023-04-03T02:24:52;6.80;38.20
3504;DHT22;1766;53.490;10.174;2023-04-03T02:26:54;6.90;38.40
3504;DHT22;1766;53.490;10.174;2023-04-03T02:28:55;7.00;38.50
3504;DHT22;1766;53.490;10.174;2023-04-03T02:30:57;7.00;38.60
3504;DHT22;1766;53.490;10.174;2023-04-03T02:32:59;7.00;38.60
3504;DHT22;1766;53.490;10.174;2023-04-03T02:35:01;7.00;38.60
3504;DHT22;1766;53.490;10.174;2023-04-03T02:37:04;7.00;38.50
3504;DHT22;1766;53.490;10.174;2023-04-03T02:39:06;7.00;38.50
3504;DHT22;1766;53.490;10.174;2023-04-03T02:41:11;7.00;38.70
3504;DHT22;1766;53.490;10.174;2023-04-03T02:43:13;7.10;38.70
3504;DHT22;1766;53.490;10.174;2023-04-03T02:45:15;7.10;38.70
3504;DHT22;1766;53.490;10.174;2023-04-03T02:47:17;7.10;38.70
3504;DHT22;1766;53.490;10.174;2023-04-03T02:49:18;7.10;38.70
3504;DHT22;1766;53.490;10.174;2023-04-03T02:51:21;7.10;38.80
3504;DHT22;1766;53.490;10.174;2023-04-03T02:53:24;7.10;38.80
3504;DHT22;1766;53.490;10.174;2023-04-03T02:55:26;7.10;38.80
3504;DHT22;1766;53.490;10.174;2023-04-03T02:57:28;7.10;38.80
3504;DHT22;1766;53.490;10.174;2023-04-03T02:59:30;7.10;38.80
3504;DHT22;1766;53.490;10.174;2023-04-03T03:01:31;7.20;38.90
3504;DHT22;1766;53.490;10.174;2023-04-03T03:03:33;7.10;38.80
3504;DHT22;1766;53.490;10.174;2023-04-03T03:05:35;7.10;38.70
3504;DHT22;1766;53.490;10.174;2023-04-03T03:07:37;7.10;38.80
3504;DHT22;1766;53.490;10.174;2023-04-03T03:09:40;7.10;38.80
3504;DHT22;1766;53.490;10.174;2023-04-03T03:11:42;7.10;38.80
3504;DHT22;1766;53.490;10.174;2023-04-03T03:13:43;7.10;38.80
3504;DHT22;1766;53.490;10.174;2023-04-03T03:15:45;7.10;38.80
3504;DHT22;1766;53.490;10.174;2023-04-03T03:17:47;7.10;38.80
3504;DHT22;1766;53.490;10.174;2023-04-03T03:19:49;7.10;38.90
3504;DHT22;1766;53.490;10.174;2023-04-03T03:21:50;7.10;38.90
3504;DHT22;1766;53.490;10.174;2023-04-03T03:23:53;7.00;38.70
3504;DHT22;1766;53.490;10.174;2023-04-03T03:25:57;7.10;38.90
3504;DHT22;1766;53.490;10.174;2023-04-03T03:27:59;7.00;39.00
3504;DHT22;1766;53.490;10.174;2023-04-03T03:30:00;7.00;38.90
3504;DHT22;1766;53.490;10.174;2023-04-03T03:32:02;6.90;38.90
3504;DHT22;1766;53.490;10.174;2023-04-03T03:34:05;7.00;39.10
3504;DHT22;1766;53.490;10.174;2023-04-03T03:36:07;7.00;39.00
3504;DHT22;1766;53.490;10.174;2023-04-03T03:38:09;6.90;39.00
3504;DHT22;1766;53.490;10.174;2023-04-03T03:40:11;7.00;39.00
3504;DHT22;1766;53.490;10.174;2023-04-03T03:42:20;6.90;39.00
3504;DHT22;1766;53.490;10.174;2023-04-03T03:44:22;6.90;39.00
3504;DHT22;1766;53.490;10.174;2023-04-03T03:46:24;6.80;38.90
3504;DHT22;1766;53.490;10.174;2023-04-03T03:48:26;6.90;39.00
3504;DHT22;1766;53.490;10.174;2023-04-03T03:50:28;6.80;38.80
3504;DHT22;1766;53.490;10.174;2023-04-03T03:52:29;6.80;38.90
3504;DHT22;1766;53.490;10.174;2023-04-03T03:54:31;6.90;39.00
3504;DHT22;1766;53.490;10.174;2023-04-03T03:56:33;6.90;39.00
3504;DHT22;1766;53.490;10.174;2023-04-03T03:58:37;6.80;38.90
3504;DHT22;1766;53.490;10.174;2023-04-03T04:00:39;6.90;39.00
3504;DHT22;1766;53.490;10.174;2023-04-03T04:02:41;6.70;38.80
3504;DHT22;1766;53.490;10.174;2023-04-03T04:04:43;6.70;38.90
3504;DHT22;1766;53.490;10.174;2023-04-03T04:06:45;6.70;38.90
3504;DHT22;1766;53.490;10.174;2023-04-03T04:08:46;6.70;38.90
3504;DHT22;1766;53.490;10.174;2023-04-03T04:10:48;6.60;39.50
3504;DHT22;1766;53.490;10.174;2023-04-03T04:12:50;6.60;39.00
3504;DHT22;1766;53.490;10.174;2023-04-03T04:14:53;6.60;38.90
3504;DHT22;1766;53.490;10.174;2023-04-03T04:16:55;6.60;39.00
3504;DHT22;1766;53.490;10.174;2023-04-03T04:18:57;6.60;39.00
3504;DHT22;1766;53.490;10.174;2023-04-03T04:20:58;6.50;38.90
3504;DHT22;1766;53.490;10.174;2023-04-03T04:23:01;6.60;39.20
3504;DHT22;1766;53.490;10.174;2023-04-03T04:25:03;6.70;39.20
3504;DHT22;1766;53.490;10.174;2023-04-03T04:27:05;6.50;39.10
3504;DHT22;1766;53.490;10.174;2023-04-03T04:29:08;6.60;39.20
3504;DHT22;1766;53.490;10.174;2023-04-03T04:31:12;6.60;39.20
3504;DHT22;1766;53.490;10.174;2023-04-03T04:33:13;6.50;39.00
3504;DHT22;1766;53.490;10.174;2023-04-03T04:35:16;6.50;39.00
3504;DHT22;1766;53.490;10.174;2023-04-03T04:37:18;6.50;39.10
3504;DHT22;1766;53.490;10.174;2023-04-03T04:39:20;6.40;38.90
3504;DHT22;1766;53.490;10.174;2023-04-03T04:41:22;6.40;39.00
3504;DHT22;1766;53.490;10.174;2023-04-03T04:43:24;6.40;39.00
3504;DHT22;1766;53.490;10.174;2023-04-03T04:45:26;6.40;39.10
3504;DHT22;1766;53.490;10.174;2023-04-03T04:47:29;6.40;39.10
3504;DHT22;1766;53.490;10.174;2023-04-03T04:49:31;6.50;39.20
3504;DHT22;1766;53.490;10.174;2023-04-03T04:51:33;6.30;39.10
3504;DHT22;1766;53.490;10.174;2023-04-03T04:53:35;6.30;39.10
3504;DHT22;1766;53.490;10.174;2023-04-03T04:55:37;6.40;39.30
3504;DHT22;1766;53.490;10.174;2023-04-03T04:57:38;6.30;39.30
3504;DHT22;1766;53.490;10.174;2023-04-03T04:59:40;6.30;39.30
3504;DHT22;1766;53.490;10.174;2023-04-03T05:01:42;6.30;39.30
3504;DHT22;1766;53.490;10.174;2023-04-03T05:03:45;6.30;39.40
3504;DHT22;1766;53.490;10.174;2023-04-03T05:05:48;6.30;39.30
3504;DHT22;1766;53.490;10.174;2023-04-03T05:07:50;6.30;39.30
3504;DHT22;1766;53.490;10.174;2023-04-03T05:09:51;6.30;39.30
3504;DHT22;1766;53.490;10.174;2023-04-03T05:11:53;6.20;39.30
3504;DHT22;1766;53.490;10.174;2023-04-03T05:13:56;6.30;39.40
3504;DHT22;1766;53.490;10.174;2023-04-03T05:15:58;6.30;39.40
3504;DHT22;1766;53.490;10.174;2023-04-03T05:18:00;6.30;39.50
3504;DHT22;1766;53.490;10.174;2023-04-03T05:20:03;6.30;39.60
3504;DHT22;1766;53.490;10.174;2023-04-03T05:22:06;6.40;39.70
3504;DHT22;1766;53.490;10.174;2023-04-03T05:24:08;6.30;39.60
3504;DHT22;1766;53.490;10.174;2023-04-03T05:26:10;6.30;39.60
3504;DHT22;1766;53.490;10.174;2023-04-03T05:28:12;6.30;39.70
3504;DHT22;1766;53.490;10.174;2023-04-03T05:30:14;6.40;40.00
3504;DHT22;1766;53.490;10.174;2023-04-03T05:32:16;6.40;40.00
3504;DHT22;1766;53.490;10.174;2023-04-03T05:34:18;6.50;40.00
3504;DHT22;1766;53.490;10.174;2023-04-03T05:36:22;6.50;40.10
3504;DHT22;1766;53.490;10.174;2023-04-03T05:38:23;6.50;40.20
3504;DHT22;1766;53.490;10.174;2023-04-03T05:40:25;6.50;40.20
3504;DHT22;1766;53.490;10.174;2023-04-03T05:42:27;6.70;40.30
3504;DHT22;1766;53.490;10.174;2023-04-03T05:44:29;6.80;40.40
3504;DHT22;1766;53.490;10.174;2023-04-03T05:46:31;6.70;40.20
3504;DHT22;1766;53.490;10.174;2023-04-03T05:48:33;6.70;40.30
3504;DHT22;1766;53.490;10.174;2023-04-03T05:50:35;6.70;40.20
3504;DHT22;1766;53.490;10.174;2023-04-03T05:52:45;6.70;40.20
3504;DHT22;1766;53.490;10.174;2023-04-03T05:54:48;6.80;40.40
3504;DHT22;1766;53.490;10.174;2023-04-03T05:56:51;6.80;40.30
3504;DHT22;1766;53.490;10.174;2023-04-03T05:58:53;6.80;40.50
3504;DHT22;1766;53.490;10.174;2023-04-03T06:00:55;6.90;40.30
3504;DHT22;1766;53.490;10.174;2023-04-03T06:02:57;6.90;40.30
3504;DHT22;1766;53.490;10.174;2023-04-03T06:04:59;6.90;40.50
3504;DHT22;1766;53.490;10.174;2023-04-03T06:07:01;7.00;40.60
3504;DHT22;1766;53.490;10.174;2023-04-03T06:09:04;7.00;40.70
3504;DHT22;1766;53.490;10.174;2023-04-03T06:11:07;7.10;40.80
3504;DHT22;1766;53.490;10.174;2023-04-03T06:13:09;7.20;40.90
3504;DHT22;1766;53.490;10.174;2023-04-03T06:15:10;7.00;40.80
3504;DHT22;1766;53.490;10.174;2023-04-03T06:17:12;7.20;41.00
3504;DHT22;1766;53.490;10.174;2023-04-03T06:19:14;7.30;41.10
3504;DHT22;1766;53.490;10.174;2023-04-03T06:21:16;7.30;41.20
3504;DHT22;1766;53.490;10.174;2023-04-03T06:23:18;7.40;41.10
3504;DHT22;1766;53.490;10.174;2023-04-03T06:25:21;7.40;41.20
3504;DHT22;1766;53.490;10.174;2023-04-03T06:27:33;7.50;41.30
3504;DHT22;1766;53.490;10.174;2023-04-03T06:29:35;7.60;41.30
3504;DHT22;1766;53.490;10.174;2023-04-03T06:31:37;7.70;41.40
3504;DHT22;1766;53.490;10.174;2023-04-03T06:33:39;7.80;41.50
3504;DHT22;1766;53.490;10.174;2023-04-03T06:35:41;7.90;41.60
3504;DHT22;1766;53.490;10.174;2023-04-03T06:37:42;8.00;41.60
3504;DHT22;1766;53.490;10.174;2023-04-03T06:39:44;8.00;41.60
3504;DHT22;1766;53.490;10.174;2023-04-03T06:41:48;8.20;41.80
3504;DHT22;1766;53.490;10.174;2023-04-03T06:43:50;8.20;41.80
3504;DHT22;1766;53.490;10.174;2023-04-03T06:45:52;8.30;41.80
3504;DHT22;1766;53.490;10.174;2023-04-03T06:47:54;8.30;41.80
3504;DHT22;1766;53.490;10.174;2023-04-03T06:49:56;8.40;41.90
3504;DHT22;1766;53.490;10.174;2023-04-03T06:51:58;8.60;42.00
3504;DHT22;1766;53.490;10.174;2023-04-03T06:54:00;8.70;42.10
3504;DHT22;1766;53.490;10.174;2023-04-03T06:56:03;8.70;42.20
3504;DHT22;1766;53.490;10.174;2023-04-03T06:58:07;8.90;42.30
3504;DHT22;1766;53.490;10.174;2023-04-03T07:00:12;9.00;42.20
3504;DHT22;1766;53.490;10.174;2023-04-03T07:02:15;9.00;42.30
3504;DHT22;1766;53.490;10.174;2023-04-03T07:04:16;9.10;42.10
3504;DHT22;1766;53.490;10.174;2023-04-03T07:06:20;9.30;42.40
3504;DHT22;1766;53.490;10.174;2023-04-03T07:08:22;9.30;42.30
3504;DHT22;1766;53.490;10.174;2023-04-03T07:10:26;9.30;42.30
3504;DHT22;1766;53.490;10.174;2023-04-03T07:12:28;9.50;42.30
3504;DHT22;1766;53.490;10.174;2023-04-03T07:14:31;9.50;42.20
3504;DHT22;1766;53.490;10.174;2023-04-03T07:16:33;9.70;42.30
3504;DHT22;1766;53.490;10.174;2023-04-03T07:18:38;9.70;42.30
3504;DHT22;1766;53.490;10.174;2023-04-03T07:20:41;9.80;42.10
3504;DHT22;1766;53.490;10.174;2023-04-03T07:22:42;9.90;42.00
3504;DHT22;1766;53.490;10.174;2023-04-03T07:24:45;10.00;41.10
3504;DHT22;1766;53.490;10.174;2023-04-03T07:26:49;10.00;41.10
3504;DHT22;1766;53.490;10.174;2023-04-03T07:28:51;10.10;41.10
3504;DHT22;1766;53.490;10.174;2023-04-03T07:31:00;10.20;41.00
3504;DHT22;1766;53.490;10.174;2023-04-03T07:33:03;10.20;40.90
3504;DHT22;1766;53.490;10.174;2023-04-03T07:35:05;10.30;40.90
3504;DHT22;1766;53.490;10.174;2023-04-03T07:37:07;10.40;40.70
3504;DHT22;1766;53.490;10.174;2023-04-03T07:39:10;10.40;40.60
3504;DHT22;1766;53.490;10.174;2023-04-03T07:41:14;10.50;40.50
3504;DHT22;1766;53.490;10.174;2023-04-03T07:43:18;10.50;40.50
3504;DHT22;1766;53.490;10.174;2023-04-03T07:45:21;10.60;40.30
3504;DHT22;1766;53.490;10.174;2023-04-03T07:47:25;10.60;40.20
3504;DHT22;1766;53.490;10.174;2023-04-03T07:49:27;10.70;40.20
3504;DHT22;1766;53.490;10.174;2023-04-03T07:51:29;10.70;40.00
3504;DHT22;1766;53.490;10.174;2023-04-03T07:53:31;10.80;39.80
3504;DHT22;1766;53.490;10.174;2023-04-03T07:55:34;10.90;39.80
3504;DHT22;1766;53.490;10.174;2023-04-03T07:57:40;10.90;39.70
3504;DHT22;1766;53.490;10.174;2023-04-03T07:59:42;10.90;39.50
3504;DHT22;1766;53.490;10.174;2023-04-03T08:01:44;11.00;39.50
3504;DHT22;1766;53.490;10.174;2023-04-03T08:03:47;11.10;39.40
3504;DHT22;1766;53.490;10.174;2023-04-03T08:05:50;11.00;39.20
3504;DHT22;1766;53.490;10.174;2023-04-03T08:07:53;11.20;39.20
3504;DHT22;1766;53.490;10.174;2023-04-03T08:09:55;11.30;39.00
3504;DHT22;1766;53.490;10.174;2023-04-03T08:11:57;11.30;38.90
3504;DHT22;1766;53.490;10.174;2023-04-03T08:13:59;11.40;38.70
3504;DHT22;1766;53.490;10.174;2023-04-03T08:16:10;11.50;38.60
3504;DHT22;1766;53.490;10.174;2023-04-03T08:18:13;11.40;38.40
3504;DHT22;1766;53.490;10.174;2023-04-03T08:20:16;11.60;38.20
3504;DHT22;1766;53.490;10.174;2023-04-03T08:22:19;11.60;38.10
3504;DHT22;1766;53.490;10.174;2023-04-03T08:24:21;11.70;38.00
3504;DHT22;1766;53.490;10.174;2023-04-03T08:26:23;11.70;37.70
3504;DHT22;1766;53.490;10.174;2023-04-03T08:28:26;11.80;37.60
3504;DHT22;1766;53.490;10.174;2023-04-03T08:30:28;11.90;37.50
3504;DHT22;1766;53.490;10.174;2023-04-03T08:32:30;11.90;37.20
3504;DHT22;1766;53.490;10.174;2023-04-03T08:34:32;11.80;36.90
3504;DHT22;1766;53.490;10.174;2023-04-03T08:36:36;12.00;36.80
3504;DHT22;1766;53.490;10.174;2023-04-03T08:38:38;12.10;36.70
3504;DHT22;1766;53.490;10.174;2023-04-03T08:40:41;12.10;36.40
3504;DHT22;1766;53.490;10.174;2023-04-03T08:42:51;12.20;36.30
3504;DHT22;1766;53.490;10.174;2023-04-03T08:45:01;12.20;36.10
3504;DHT22;1766;53.490;10.174;2023-04-03T08:47:18;12.20;35.80
3504;DHT22;1766;53.490;10.174;2023-04-03T08:49:28;12.30;35.50
3504;DHT22;1766;53.490;10.174;2023-04-03T08:51:32;12.30;35.20
3504;DHT22;1766;53.490;10.174;2023-04-03T08:53:39;12.50;35.10
3504;DHT22;1766;53.490;10.174;2023-04-03T08:55:44;12.40;34.80
3504;DHT22;1766;53.490;10.174;2023-04-03T08:57:48;12.50;34.50
3504;DHT22;1766;53.490;10.174;2023-04-03T08:59:55;12.50;34.20
3504;DHT22;1766;53.490;10.174;2023-04-03T09:02:00;12.60;33.90
3504;DHT22;1766;53.490;10.174;2023-04-03T09:04:11;12.60;33.50
3504;DHT22;1766;53.490;10.174;2023-04-03T09:06:18;12.60;33.20
3504;DHT22;1766;53.490;10.174;2023-04-03T09:08:23;12.60;33.00
3504;DHT22;1766;53.490;10.174;2023-04-03T09:10:32;12.70;32.50
3504;DHT22;1766;53.490;10.174;2023-04-03T09:12:38;12.70;32.00
3504;DHT22;1766;53.490;10.174;2023-04-03T09:14:46;12.60;31.70
3504;DHT22;1766;53.490;10.174;2023-04-03T09:16:55;12.80;31.60
3504;DHT22;1766;53.490;10.174;2023-04-03T09:19:05;12.80;31.00
3504;DHT22;1766;53.490;10.174;2023-04-03T09:21:16;12.70;30.80
3504;DHT22;1766;53.490;10.174;2023-04-03T09:23:26;12.70;30.60
3504;DHT22;1766;53.490;10.174;2023-04-03T09:25:33;12.70;30.50
3504;DHT22;1766;53.490;10.174;2023-04-03T09:27:39;12.90;30.50
3504;DHT22;1766;53.490;10.174;2023-04-03T09:29:43;13.10;30.30
3504;DHT22;1766;53.490;10.174;2023-04-03T09:31:49;13.00;30.00
3504;DHT22;1766;53.490;10.174;2023-04-03T09:33:54;13.20;30.00
3504;DHT22;1766;53.490;10.174;2023-04-03T09:35:58;13.10;29.90
3504;DHT22;1766;53.490;10.174;2023-04-03T09:38:13;13.40;29.80
3504;DHT22;1766;53.490;10.174;2023-04-03T09:40:36;13.30;29.40
3504;DHT22;1766;53.490;10.174;2023-04-03T09:42:40;13.30;29.40
3504;DHT22;1766;53.490;10.174;2023-04-03T09:44:53;13.30;29.30
3504;DHT22;1766;53.490;10.174;2023-04-03T09:46:56;13.30;29.10
3504;DHT22;1766;53.490;10.174;2023-04-03T09:49:00;13.40;28.90
3504;DHT22;1766;53.490;10.174;2023-04-03T09:51:04;13.40;28.00
3504;DHT22;1766;53.490;10.174;2023-04-03T09:53:07;13.40;27.50
3504;DHT22;1766;53.490;10.174;2023-04-03T09:55:16;13.40;27.30
3504;DHT22;1766;53.490;10.174;2023-04-03T09:57:22;13.50;27.40
3504;DHT22;1766;53.490;10.174;2023-04-03T09:59:23;13.50;27.00
3504;DHT22;1766;53.490;10.174;2023-04-03T10:01:29;13.50;26.70
3504;DHT22;1766;53.490;10.174;2023-04-03T10:03:33;13.50;26.90
3504;DHT22;1766;53.490;10.174;2023-04-03T10:05:38;13.50;27.00
3504;DHT22;1766;53.490;10.174;2023-04-03T10:07:40;13.60;27.00
3504;DHT22;1766;53.490;10.174;2023-04-03T10:09:54;13.70;26.80
3504;DHT22;1766;53.490;10.174;2023-04-03T10:12:00;13.60;26.70
3504;DHT22;1766;53.490;10.174;2023-04-03T10:14:16;13.70;26.70
3504;DHT22;1766;53.490;10.174;2023-04-03T10:16:21;13.80;26.70
3504;DHT22;1766;53.490;10.174;2023-04-03T10:18:32;13.90;26.50
3504;DHT22;1766;53.490;10.174;2023-04-03T10:20:44;14.00;26.60
3504;DHT22;1766;53.490;10.174;2023-04-03T10:23:00;14.10;26.60
3504;DHT22;1766;53.490;10.174;2023-04-03T10:25:12;14.20;26.60
3504;DHT22;1766;53.490;10.174;2023-04-03T10:27:34;14.30;26.70
3504;DHT22;1766;53.490;10.174;2023-04-03T10:29:48;14.50;26.70
3504;DHT22;1766;53.490;10.174;2023-04-03T10:32:02;14.50;26.30
3504;DHT22;1766;53.490;10.174;2023-04-03T10:34:20;14.60;26.40
3504;DHT22;1766;53.490;10.174;2023-04-03T10:36:29;14.70;26.30
3504;DHT22;1766;53.490;10.174;2023-04-03T10:38:46;14.90;26.20
3504;DHT22;1766;53.490;10.174;2023-04-03T10:40:59;14.90;25.70
3504;DHT22;1766;53.490;10.174;2023-04-03T10:43:10;14.90;24.90
3504;DHT22;1766;53.490;10.174;2023-04-03T10:45:24;15.00;25.10
3504;DHT22;1766;53.490;10.174;2023-04-03T10:47:34;15.00;25.10
3504;DHT22;1766;53.490;10.174;2023-04-03T10:49:47;15.00;24.80
3504;DHT22;1766;53.490;10.174;2023-04-03T10:51:58;15.10;24.80
3504;DHT22;1766;53.490;10.174;2023-04-03T10:54:09;15.00;24.70
3504;DHT22;1766;53.490;10.174;2023-04-03T10:56:15;14.90;24.20
3504;DHT22;1766;53.490;10.174;2023-04-03T10:58:26;14.80;24.40
3504;DHT22;1766;53.490;10.174;2023-04-03T11:00:37;14.80;24.50
3504;DHT22;1766;53.490;10.174;2023-04-03T11:02:48;14.80;24.40
3504;DHT22;1766;53.490;10.174;2023-04-03T11:04:56;14.80;24.60
3504;DHT22;1766;53.490;10.174;2023-04-03T11:07:07;14.80;24.70
3504;DHT22;1766;53.490;10.174;2023-04-03T11:09:19;14.80;24.40
3504;DHT22;1766;53.490;10.174;2023-04-03T11:11:26;14.70;24.40
3504;DHT22;1766;53.490;10.174;2023-04-03T11:13:34;14.90;24.60
3504;DHT22;1766;53.490;10.174;2023-04-03T11:15:39;14.90;24.60
3504;DHT22;1766;53.490;10.174;2023-04-03T11:17:45;15.10;24.60
3504;DHT22;1766;53.490;10.174;2023-04-03T11:20:00;15.30;24.70
3504;DHT22;1766;53.490;10.174;2023-04-03T11:22:13;15.50;24.90
3504;DHT22;1766;53.490;10.174;2023-04-03T11:24:23;15.70;25.10
3504;DHT22;1766;53.490;10.174;2023-04-03T11:26:30;16.10;25.20
3504;DHT22;1766;53.490;10.174;2023-04-03T11:28:35;16.30;25.10
3504;DHT22;1766;53.490;10.174;2023-04-03T11:30:43;16.60;25.00
3504;DHT22;1766;53.490;10.174;2023-04-03T11:35:20;17.00;24.50
3504;DHT22;1766;53.490;10.174;2023-04-03T11:37:26;17.30;24.50
3504;DHT22;1766;53.490;10.174;2023-04-03T11:39:32;17.60;24.40
3504;DHT22;1766;53.490;10.174;2023-04-03T11:41:36;18.10;24.60
3504;DHT22;1766;53.490;10.174;2023-04-03T11:43:41;19.70;24.60
3504;DHT22;1766;53.490;10.174;2023-04-03T11:45:54;22.00;23.70
3504;DHT22;1766;53.490;10.174;2023-04-03T11:48:00;24.10;22.50
3504;DHT22;1766;53.490;10.174;2023-04-03T11:50:04;25.80;21.60
3504;DHT22;1766;53.490;10.174;2023-04-03T11:52:09;27.20;20.90
3504;DHT22;1766;53.490;10.174;2023-04-03T11:56:46;28.80;18.90
3504;DHT22;1766;53.490;10.174;2023-04-03T12:01:47;29.60;17.70
3504;DHT22;1766;53.490;10.174;2023-04-03T12:04:06;29.40;17.30
3504;DHT22;1766;53.490;10.174;2023-04-03T12:08:56;26.80;18.00
3504;DHT22;1766;53.490;10.174;2023-04-03T12:11:14;26.50;18.10
3504;DHT22;1766;53.490;10.174;2023-04-03T12:13:17;27.00;18.10
3504;DHT22;1766;53.490;10.174;2023-04-03T12:15:24;27.10;17.90
3504;DHT22;1766;53.490;10.174;2023-04-03T12:17:44;26.20;18.00
3504;DHT22;1766;53.490;10.174;2023-04-03T12:19:45;24.90;18.20
3504;DHT22;1766;53.490;10.174;2023-04-03T12:22:08;23.80;18.20
3504;DHT22;1766;53.490;10.174;2023-04-03T12:24:25;22.50;18.50
3504;DHT22;1766;53.490;10.174;2023-04-03T12:26:32;21.60;18.90
3504;DHT22;1766;53.490;10.174;2023-04-03T12:28:39;21.00;19.10
3504;DHT22;1766;53.490;10.174;2023-04-03T12:30:42;20.80;19.20
3504;DHT22;1766;53.490;10.174;2023-04-03T12:32:56;20.70;19.10
3504;DHT22;1766;53.490;10.174;2023-04-03T12:35:21;20.60;19.30
3504;DHT22;1766;53.490;10.174;2023-04-03T12:37:42;20.80;19.20
3504;DHT22;1766;53.490;10.174;2023-04-03T12:39:55;21.50;19.30
3504;DHT22;1766;53.490;10.174;2023-04-03T12:42:16;22.40;19.30
3504;DHT22;1766;53.490;10.174;2023-04-03T12:44:34;23.40;19.30
3504;DHT22;1766;53.490;10.174;2023-04-03T12:46:43;24.20;19.00
3504;DHT22;1766;53.490;10.174;2023-04-03T12:48:50;24.50;18.90
3504;DHT22;1766;53.490;10.174;2023-04-03T12:50:54;25.00;18.90
3504;DHT22;1766;53.490;10.174;2023-04-03T12:53:00;25.30;18.50
3504;DHT22;1766;53.490;10.174;2023-04-03T12:55:08;25.70;18.50
3504;DHT22;1766;53.490;10.174;2023-04-03T12:57:18;26.00;18.20
3504;DHT22;1766;53.490;10.174;2023-04-03T12:59:22;26.10;18.00
3504;DHT22;1766;53.490;10.174;2023-04-03T13:01:25;26.30;18.10
3504;DHT22;1766;53.490;10.174;2023-04-03T13:03:28;26.60;17.90
3504;DHT22;1766;53.490;10.174;2023-04-03T13:05:32;26.90;17.60
3504;DHT22;1766;53.490;10.174;2023-04-03T13:07:36;26.50;16.60
3504;DHT22;1766;53.490;10.174;2023-04-03T13:09:41;26.10;16.80
3504;DHT22;1766;53.490;10.174;2023-04-03T13:11:43;25.50;16.90
3504;DHT22;1766;53.490;10.174;2023-04-03T13:13:55;24.70;16.90
3504;DHT22;1766;53.490;10.174;2023-04-03T13:15:58;24.00;17.10
3504;DHT22;1766;53.490;10.174;2023-04-03T13:18:00;23.60;17.20
3504;DHT22;1766;53.490;10.174;2023-04-03T13:20:18;23.20;17.20
3504;DHT22;1766;53.490;10.174;2023-04-03T13:22:28;23.00;17.40
3504;DHT22;1766;53.490;10.174;2023-04-03T13:24:35;23.40;17.60
3504;DHT22;1766;53.490;10.174;2023-04-03T13:26:39;24.00;17.60
3504;DHT22;1766;53.490;10.174;2023-04-03T13:28:41;24.80;17.50
3504;DHT22;1766;53.490;10.174;2023-04-03T13:31:08;25.60;17.30
3504;DHT22;1766;53.490;10.174;2023-04-03T13:33:21;26.10;16.60
3504;DHT22;1766;53.490;10.174;2023-04-03T13:35:27;26.80;16.60
3504;DHT22;1766;53.490;10.174;2023-04-03T13:37:33;27.10;16.30
3504;DHT22;1766;53.490;10.174;2023-04-03T13:39:37;27.60;16.00
3504;DHT22;1766;53.490;10.174;2023-04-03T13:41:42;27.70;15.70
3504;DHT22;1766;53.490;10.174;2023-04-03T13:43:46;27.60;15.90
3504;DHT22;1766;53.490;10.174;2023-04-03T13:45:59;27.70;15.90
3504;DHT22;1766;53.490;10.174;2023-04-03T13:48:10;27.80;15.90
3504;DHT22;1766;53.490;10.174;2023-04-03T13:50:20;28.30;15.80
3504;DHT22;1766;53.490;10.174;2023-04-03T13:52:27;28.70;15.40
3504;DHT22;1766;53.490;10.174;2023-04-03T13:54:34;29.00;15.30